sensor_id;sensor_type;location;lat;lon;timestamp;temperature;humidity
17918;DHT22;9084;50.956;3.106;2023-07-29T00:01:36;17.60;99.90
17918;DHT22;9084;50.956;3.106;2023-07-29T00:04:07;17.50;99.90
17918;DHT22;9084;50.956;3.106;2023-07-29T00:06:34;17.60;99.90
17918;DHT22;9084;50.956;3.106;2023-07-29T00:09:02;17.50;99.90
17918;DHT22;9084;50.956;3.106;2023-07-29T00:11:30;17.60;99.90
17918;DHT22;9084;50.956;3.106;2023-07-29T00:13:59;17.50;99.90
17918;DHT22;9084;50.956;3.106;2023-07-29T00:16:27;17.50;99.90
17918;DHT22;9084;50.956;3.106;2023-07-29T00:18:55;17.50;99.90
17918;DHT22;9084;50.956;3.106;2023-07-29T00:21:25;17.50;99.90
17918;DHT22;9084;50.956;3.106;2023-07-29T00:23:51;17.50;99.90
17918;DHT22;9084;50.956;3.106;2023-07-29T00:26:22;17.50;99.90
17918;DHT22;9084;50.956;3.106;2023-07-29T00:28:47;17.50;99.90
17918;DHT22;9084;50.956;3.106;2023-07-29T00:31:13;17.40;99.90
17918;DHT22;9084;50.956;3.106;2023-07-29T00:33:41;17.50;99.90
17918;DHT22;9084;50.956;3.106;2023-07-29T00:36:06;17.40;99.90
17918;DHT22;9084;50.956;3.106;2023-07-29T00:38:34;17.40;99.90
17918;DHT22;9084;50.956;3.106;2023-07-29T00:41:05;17.40;99.90
17918;DHT22;9084;50.956;3.106;2023-07-29T00:43:36;17.40;99.90
17918;DHT22;9084;50.956;3.106;2023-07-29T00:46:04;17.40;99.90
17918;DHT22;9084;50.956;3.106;2023-07-29T00:48:30;17.40;99.90
17918;DHT22;9084;50.956;3.106;2023-07-29T00:50:56;17.40;99.90
17918;DHT22;9084;50.956;3.106;2023-07-29T00:53:22;17.40;99.90
17918;DHT22;9084;50.956;3.106;2023-07-29T00:55:47;17.40;99.90
17918;DHT22;9084;50.956;3.106;2023-07-29T00:58:13;17.40;99.90
17918;DHT22;9084;50.956;3.106;2023-07-29T01:00:40;17.40;99.90
17918;DHT22;9084;50.956;3.106;2023-07-29T01:03:06;17.40;99.90
17918;DHT22;9084;50.956;3.106;2023-07-29T01:05:39;17.40;99.90
17918;DHT22;9084;50.956;3.106;2023-07-29T01:08:19;17.40;99.90
17918;DHT22;9084;50.956;3.106;2023-07-29T01:10:58;17.40;99.90
17918;DHT22;9084;50.956;3.106;2023-07-29T01:13:44;17.40;99.90
17918;DHT22;9084;50.956;3.106;2023-07-29T01:16:18;17.40;99.90
17918;DHT22;9084;50.956;3.106;2023-07-29T01:18:50;17.40;99.90
17918;DHT22;9084;50.956;3.106;2023-07-29T01:21:19;17.30;99.90
17918;DHT22;9084;50.956;3.106;2023-07-29T01:23:52;17.30;99.90
17918;DHT22;9084;50.956;3.106;2023-07-29T01:26:21;17.30;99.90
17918;DHT22;9084;50.956;3.106;2023-07-29T01:28:46;17.30;99.90
17918;DHT22;9084;50.956;3.106;2023-07-29T01:31:13;17.30;99.90
17918;DHT22;9084;50.956;3.106;2023-07-29T01:33:51;17.20;99.90
17918;DHT22;9084;50.956;3.106;2023-07-29T01:36:22;17.30;99.90
17918;DHT22;9084;50.956;3.106;2023-07-29T01:38:52;17.30;99.90
17918;DHT22;9084;50.956;3.106;2023-07-29T01:41:19;17.20;99.90
17918;DHT22;9084;50.956;3.106;2023-07-29T01:43:48;17.30;99.90
17918;DHT22;9084;50.956;3.106;2023-07-29T01:46:19;17.30;99.90
17918;DHT22;9084;50.956;3.106;2023-07-29T01:48:45;17.30;99.90
17918;DHT22;9084;50.956;3.106;2023-07-29T01:51:12;17.30;99.90
17918;DHT22;9084;50.956;3.106;2023-07-29T01:53:40;17.30;99.90
17918;DHT22;9084;50.956;3.106;2023-07-29T01:56:05;17.30;99.90
17918;DHT22;9084;50.956;3.106;2023-07-29T01:58:31;17.30;99.90
17918;DHT22;9084;50.956;3.106;2023-07-29T02:00:57;17.30;99.90
17918;DHT22;9084;50.956;3.106;2023-07-29T02:03:22;17.30;99.90
17918;DHT22;9084;50.956;3.106;2023-07-29T02:05:48;17.40;99.90
17918;DHT22;9084;50.956;3.106;2023-07-29T02:08:14;17.30;99.90
17918;DHT22;9084;50.956;3.106;2023-07-29T02:10:40;17.30;99.90
17918;DHT22;9084;50.956;3.106;2023-07-29T02:13:06;17.30;99.90
17918;DHT22;9084;50.956;3.106;2023-07-29T02:15:31;17.30;99.90
17918;DHT22;9084;50.956;3.106;2023-07-29T02:17:57;17.30;99.90
17918;DHT22;9084;50.956;3.106;2023-07-29T02:20:27;17.30;99.90
17918;DHT22;9084;50.956;3.106;2023-07-29T02:22:52;17.20;99.90
17918;DHT22;9084;50.956;3.106;2023-07-29T02:25:18;17.20;99.90
17918;DHT22;9084;50.956;3.106;2023-07-29T02:27:46;17.20;99.90
17918;DHT22;9084;50.956;3.106;2023-07-29T02:30:14;17.20;99.90
17918;DHT22;9084;50.956;3.106;2023-07-29T02:32:39;17.10;99.90
17918;DHT22;9084;50.956;3.106;2023-07-29T02:35:05;17.10;99.90
17918;DHT22;9084;50.956;3.106;2023-07-29T02:37:31;17.00;99.90
17918;DHT22;9084;50.956;3.106;2023-07-29T02:39:57;17.00;99.90
17918;DHT22;9084;50.956;3.106;2023-07-29T02:42:22;17.00;99.90
17918;DHT22;9084;50.956;3.106;2023-07-29T02:44:48;17.00;99.90
17918;DHT22;9084;50.956;3.106;2023-07-29T02:47:16;17.00;99.90
17918;DHT22;9084;50.956;3.106;2023-07-29T02:49:41;17.00;99.90
17918;DHT22;9084;50.956;3.106;2023-07-29T02:52:07;17.00;99.90
17918;DHT22;9084;50.956;3.106;2023-07-29T02:54:35;17.00;99.90
17918;DHT22;9084;50.956;3.106;2023-07-29T02:57:06;17.00;99.90
17918;DHT22;9084;50.956;3.106;2023-07-29T02:59:31;17.10;99.90
17918;DHT22;9084;50.956;3.106;2023-07-29T03:01:57;17.10;99.90
17918;DHT22;9084;50.956;3.106;2023-07-29T03:04:23;17.10;99.90
17918;DHT22;9084;50.956;3.106;2023-07-29T03:06:48;17.10;99.90
17918;DHT22;9084;50.956;3.106;2023-07-29T03:09:17;17.10;99.90
17918;DHT22;9084;50.956;3.106;2023-07-29T03:11:45;17.10;99.90
17918;DHT22;9084;50.956;3.106;2023-07-29T03:14:11;17.20;99.90
17918;DHT22;9084;50.956;3.106;2023-07-29T03:16:39;17.20;99.90
17918;DHT22;9084;50.956;3.106;2023-07-29T03:19:04;17.30;99.90
17918;DHT22;9084;50.956;3.106;2023-07-29T03:21:31;17.30;99.90
17918;DHT22;9084;50.956;3.106;2023-07-29T03:23:59;17.30;99.90
17918;DHT22;9084;50.956;3.106;2023-07-29T03:26:27;17.30;99.90
17918;DHT22;9084;50.956;3.106;2023-07-29T03:28:53;17.30;99.90
17918;DHT22;9084;50.956;3.106;2023-07-29T03:31:18;17.20;99.90
17918;DHT22;9084;50.956;3.106;2023-07-29T03:33:44;17.20;99.90
17918;DHT22;9084;50.956;3.106;2023-07-29T03:36:14;17.20;99.90
17918;DHT22;9084;50.956;3.106;2023-07-29T03:38:41;17.20;99.90
17918;DHT22;9084;50.956;3.106;2023-07-29T03:41:08;17.10;99.90
17918;DHT22;9084;50.956;3.106;2023-07-29T03:43:36;17.10;99.90
17918;DHT22;9084;50.956;3.106;2023-07-29T03:46:02;17.10;99.90
17918;DHT22;9084;50.956;3.106;2023-07-29T03:48:27;17.10;99.90
17918;DHT22;9084;50.956;3.106;2023-07-29T03:50:53;17.00;99.90
17918;DHT22;9084;50.956;3.106;2023-07-29T03:53:20;17.00;99.90
17918;DHT22;9084;50.956;3.106;2023-07-29T03:55:47;17.00;99.90
17918;DHT22;9084;50.956;3.106;2023-07-29T03:58:15;16.90;99.90
17918;DHT22;9084;50.956;3.106;2023-07-29T04:00:45;16.90;99.90
17918;DHT22;9084;50.956;3.106;2023-07-29T04:03:11;16.90;99.90
17918;DHT22;9084;50.956;3.106;2023-07-29T04:05:36;16.80;99.90
17918;DHT22;9084;50.956;3.106;2023-07-29T04:08:05;16.80;99.90
17918;DHT22;9084;50.956;3.106;2023-07-29T04:10:33;16.80;99.90
17918;DHT22;9084;50.956;3.106;2023-07-29T04:13:03;16.80;99.90
17918;DHT22;9084;50.956;3.106;2023-07-29T04:15:31;16.80;99.90
17918;DHT22;9084;50.956;3.106;2023-07-29T04:17:56;16.80;99.90
17918;DHT22;9084;50.956;3.106;2023-07-29T04:20:24;16.70;99.90
17918;DHT22;9084;50.956;3.106;2023-07-29T04:22:50;16.70;99.90
17918;DHT22;9084;50.956;3.106;2023-07-29T04:25:18;16.70;99.90
17918;DHT22;9084;50.956;3.106;2023-07-29T04:27:44;16.60;99.90
17918;DHT22;9084;50.956;3.106;2023-07-29T04:30:10;16.60;99.90
17918;DHT22;9084;50.956;3.106;2023-07-29T04:32:38;16.60;99.90
17918;DHT22;9084;50.956;3.106;2023-07-29T04:35:04;16.60;99.90
17918;DHT22;9084;50.956;3.106;2023-07-29T04:37:32;16.60;99.90
17918;DHT22;9084;50.956;3.106;2023-07-29T04:40:00;16.60;99.90
17918;DHT22;9084;50.956;3.106;2023-07-29T04:42:25;16.70;99.90
17918;DHT22;9084;50.956;3.106;2023-07-29T04:44:51;16.70;99.90
17918;DHT22;9084;50.956;3.106;2023-07-29T04:47:17;16.80;99.90
17918;DHT22;9084;50.956;3.106;2023-07-29T04:49:42;16.90;99.90
17918;DHT22;9084;50.956;3.106;2023-07-29T04:52:10;17.00;99.90
17918;DHT22;9084;50.956;3.106;2023-07-29T04:54:35;17.10;99.90
17918;DHT22;9084;50.956;3.106;2023-07-29T04:57:01;17.20;99.90
17918;DHT22;9084;50.956;3.106;2023-07-29T04:59:27;17.30;99.90
17918;DHT22;9084;50.956;3.106;2023-07-29T05:01:52;17.40;99.90
17918;DHT22;9084;50.956;3.106;2023-07-29T05:04:20;17.40;99.90
17918;DHT22;9084;50.956;3.106;2023-07-29T05:06:46;17.40;99.90
17918;DHT22;9084;50.956;3.106;2023-07-29T05:11:42;17.40;99.90
17918;DHT22;9084;50.956;3.106;2023-07-29T05:14:11;17.40;99.90
17918;DHT22;9084;50.956;3.106;2023-07-29T05:16:36;17.30;99.90
17918;DHT22;9084;50.956;3.106;2023-07-29T05:19:04;17.30;99.90
17918;DHT22;9084;50.956;3.106;2023-07-29T05:21:33;17.30;99.90
17918;DHT22;9084;50.956;3.106;2023-07-29T05:24:01;17.30;99.90
17918;DHT22;9084;50.956;3.106;2023-07-29T05:26:29;17.30;99.90
17918;DHT22;9084;50.956;3.106;2023-07-29T05:28:54;17.30;99.90
17918;DHT22;9084;50.956;3.106;2023-07-29T05:31:21;17.30;99.90
17918;DHT22;9084;50.956;3.106;2023-07-29T05:33:49;17.40;99.90
17918;DHT22;9084;50.956;3.106;2023-07-29T05:36:14;17.50;99.90
17918;DHT22;9084;50.956;3.106;2023-07-29T05:38:41;17.50;99.90
17918;DHT22;9084;50.956;3.106;2023-07-29T05:41:06;17.60;99.90
17918;DHT22;9084;50.956;3.106;2023-07-29T05:43:32;17.70;99.90
17918;DHT22;9084;50.956;3.106;2023-07-29T05:45:58;17.80;99.90
17918;DHT22;9084;50.956;3.106;2023-07-29T05:48:23;17.90;99.90
17918;DHT22;9084;50.956;3.106;2023-07-29T05:50:49;17.90;99.90
17918;DHT22;9084;50.956;3.106;2023-07-29T05:53:15;17.90;99.90
17918;DHT22;9084;50.956;3.106;2023-07-29T05:55:41;17.90;99.90
17918;DHT22;9084;50.956;3.106;2023-07-29T05:58:09;17.90;99.90
17918;DHT22;9084;50.956;3.106;2023-07-29T06:00:36;17.90;99.90
17918;DHT22;9084;50.956;3.106;2023-07-29T06:03:02;18.00;99.90
17918;DHT22;9084;50.956;3.106;2023-07-29T06:05:30;18.10;99.90
17918;DHT22;9084;50.956;3.106;2023-07-29T06:07:56;18.30;99.90
17918;DHT22;9084;50.956;3.106;2023-07-29T06:10:21;18.40;99.90
17918;DHT22;9084;50.956;3.106;2023-07-29T06:12:49;18.50;99.90
17918;DHT22;9084;50.956;3.106;2023-07-29T06:15:15;18.60;99.90
17918;DHT22;9084;50.956;3.106;2023-07-29T06:17:47;18.70;99.90
17918;DHT22;9084;50.956;3.106;2023-07-29T06:20:12;18.70;99.90
17918;DHT22;9084;50.956;3.106;2023-07-29T06:22:41;18.70;99.90
17918;DHT22;9084;50.956;3.106;2023-07-29T06:25:06;18.80;99.90
17918;DHT22;9084;50.956;3.106;2023-07-29T06:27:35;18.80;99.90
17918;DHT22;9084;50.956;3.106;2023-07-29T06:30:00;18.80;99.90
17918;DHT22;9084;50.956;3.106;2023-07-29T06:32:28;18.90;99.90
17918;DHT22;9084;50.956;3.106;2023-07-29T06:34:54;19.00;99.90
17918;DHT22;9084;50.956;3.106;2023-07-29T06:37:20;19.10;99.90
17918;DHT22;9084;50.956;3.106;2023-07-29T06:39:45;19.20;99.90
17918;DHT22;9084;50.956;3.106;2023-07-29T06:42:11;19.20;99.90
17918;DHT22;9084;50.956;3.106;2023-07-29T06:44:37;19.40;99.90
17918;DHT22;9084;50.956;3.106;2023-07-29T06:47:03;19.40;99.90
17918;DHT22;9084;50.956;3.106;2023-07-29T06:49:28;19.50;99.90
17918;DHT22;9084;50.956;3.106;2023-07-29T06:51:54;19.60;99.90
17918;DHT22;9084;50.956;3.106;2023-07-29T06:54:24;19.70;99.90
17918;DHT22;9084;50.956;3.106;2023-07-29T06:56:50;19.80;99.90
17918;DHT22;9084;50.956;3.106;2023-07-29T06:59:16;19.90;99.90
17918;DHT22;9084;50.956;3.106;2023-07-29T07:01:41;19.80;99.90
17918;DHT22;9084;50.956;3.106;2023-07-29T07:04:07;19.70;99.90
17918;DHT22;9084;50.956;3.106;2023-07-29T07:06:33;19.80;99.90
17918;DHT22;9084;50.956;3.106;2023-07-29T07:08:58;19.70;99.90
17918;DHT22;9084;50.956;3.106;2023-07-29T07:11:28;19.70;99.90
17918;DHT22;9084;50.956;3.106;2023-07-29T07:13:54;19.80;99.90
17918;DHT22;9084;50.956;3.106;2023-07-29T07:16:22;19.80;99.90
17918;DHT22;9084;50.956;3.106;2023-07-29T07:18:47;19.90;99.90
17918;DHT22;9084;50.956;3.106;2023-07-29T07:21:13;20.10;99.90
17918;DHT22;9084;50.956;3.106;2023-07-29T07:23:39;20.20;99.90
17918;DHT22;9084;50.956;3.106;2023-07-29T07:26:09;20.40;99.90
17918;DHT22;9084;50.956;3.106;2023-07-29T07:28:35;20.40;99.90
17918;DHT22;9084;50.956;3.106;2023-07-29T07:31:03;20.50;99.90
17918;DHT22;9084;50.956;3.106;2023-07-29T07:33:28;20.50;99.90
17918;DHT22;9084;50.956;3.106;2023-07-29T07:35:56;20.60;99.90
17918;DHT22;9084;50.956;3.106;2023-07-29T07:38:24;20.70;99.90
17918;DHT22;9084;50.956;3.106;2023-07-29T07:40:58;20.70;99.90
17918;DHT22;9084;50.956;3.106;2023-07-29T07:43:26;20.70;99.90
17918;DHT22;9084;50.956;3.106;2023-07-29T07:46:00;20.80;99.90
17918;DHT22;9084;50.956;3.106;2023-07-29T07:48:29;20.90;99.90
17918;DHT22;9084;50.956;3.106;2023-07-29T07:50:54;21.10;99.90
17918;DHT22;9084;50.956;3.106;2023-07-29T07:53:23;21.20;99.90
17918;DHT22;9084;50.956;3.106;2023-07-29T07:55:51;21.20;99.90
17918;DHT22;9084;50.956;3.106;2023-07-29T07:58:16;21.30;99.90
17918;DHT22;9084;50.956;3.106;2023-07-29T08:00:42;21.40;99.90
17918;DHT22;9084;50.956;3.106;2023-07-29T08:03:10;21.50;99.90
17918;DHT22;9084;50.956;3.106;2023-07-29T08:05:38;21.70;99.90
17918;DHT22;9084;50.956;3.106;2023-07-29T08:08:06;21.70;99.90
17918;DHT22;9084;50.956;3.106;2023-07-29T08:10:32;21.80;99.90
17918;DHT22;9084;50.956;3.106;2023-07-29T08:12:57;21.90;99.90
17918;DHT22;9084;50.956;3.106;2023-07-29T08:15:23;21.80;99.90
17918;DHT22;9084;50.956;3.106;2023-07-29T08:17:49;21.80;99.90
17918;DHT22;9084;50.956;3.106;2023-07-29T08:20:14;21.80;99.90
17918;DHT22;9084;50.956;3.106;2023-07-29T08:22:40;21.90;99.90
17918;DHT22;9084;50.956;3.106;2023-07-29T08:25:06;21.90;99.90
17918;DHT22;9084;50.956;3.106;2023-07-29T08:27:34;21.80;99.90
17918;DHT22;9084;50.956;3.106;2023-07-29T08:30:04;21.60;99.90
17918;DHT22;9084;50.956;3.106;2023-07-29T08:32:30;21.40;99.90
17918;DHT22;9084;50.956;3.106;2023-07-29T08:34:56;21.30;99.90
17918;DHT22;9084;50.956;3.106;2023-07-29T08:37:22;21.00;99.90
17918;DHT22;9084;50.956;3.106;2023-07-29T08:39:47;20.70;99.90
17918;DHT22;9084;50.956;3.106;2023-07-29T08:42:13;20.60;99.90
17918;DHT22;9084;50.956;3.106;2023-07-29T08:44:42;20.40;99.90
17918;DHT22;9084;50.956;3.106;2023-07-29T08:47:11;20.20;99.90
17918;DHT22;9084;50.956;3.106;2023-07-29T08:49:38;20.00;99.90
17918;DHT22;9084;50.956;3.106;2023-07-29T08:52:07;19.90;99.90
17918;DHT22;9084;50.956;3.106;2023-07-29T08:54:33;19.70;99.90
17918;DHT22;9084;50.956;3.106;2023-07-29T08:56:59;19.60;99.90
17918;DHT22;9084;50.956;3.106;2023-07-29T08:59:28;19.50;99.90
17918;DHT22;9084;50.956;3.106;2023-07-29T09:01:54;19.40;99.90
17918;DHT22;9084;50.956;3.106;2023-07-29T09:04:23;19.30;99.90
17918;DHT22;9084;50.956;3.106;2023-07-29T09:06:53;19.20;99.90
17918;DHT22;9084;50.956;3.106;2023-07-29T09:09:21;19.00;99.90
17918;DHT22;9084;50.956;3.106;2023-07-29T09:11:47;18.90;99.90
17918;DHT22;9084;50.956;3.106;2023-07-29T09:14:13;18.80;99.90
17918;DHT22;9084;50.956;3.106;2023-07-29T09:16:39;18.80;99.90
17918;DHT22;9084;50.956;3.106;2023-07-29T09:19:07;18.80;99.90
17918;DHT22;9084;50.956;3.106;2023-07-29T09:21:33;18.80;99.90
17918;DHT22;9084;50.956;3.106;2023-07-29T09:24:03;18.70;99.90
17918;DHT22;9084;50.956;3.106;2023-07-29T09:26:30;18.70;99.90
17918;DHT22;9084;50.956;3.106;2023-07-29T09:28:59;18.70;99.90
17918;DHT22;9084;50.956;3.106;2023-07-29T09:31:26;18.60;99.90
17918;DHT22;9084;50.956;3.106;2023-07-29T09:34:00;18.70;99.90
17918;DHT22;9084;50.956;3.106;2023-07-29T09:36:27;18.80;99.90
17918;DHT22;9084;50.956;3.106;2023-07-29T09:38:54;18.90;99.90
17918;DHT22;9084;50.956;3.106;2023-07-29T09:41:25;19.00;99.90
17918;DHT22;9084;50.956;3.106;2023-07-29T09:44:04;19.10;99.90
17918;DHT22;9084;50.956;3.106;2023-07-29T09:46:34;19.10;99.90
17918;DHT22;9084;50.956;3.106;2023-07-29T09:49:05;19.20;99.90
17918;DHT22;9084;50.956;3.106;2023-07-29T09:51:39;19.20;99.90
17918;DHT22;9084;50.956;3.106;2023-07-29T09:54:07;19.30;99.90
17918;DHT22;9084;50.956;3.106;2023-07-29T09:56:39;19.40;99.90
17918;DHT22;9084;50.956;3.106;2023-07-29T09:59:09;19.30;99.90
17918;DHT22;9084;50.956;3.106;2023-07-29T10:01:35;19.20;99.90
17918;DHT22;9084;50.956;3.106;2023-07-29T10:04:03;19.20;99.90
17918;DHT22;9084;50.956;3.106;2023-07-29T10:06:29;19.20;99.90
17918;DHT22;9084;50.956;3.106;2023-07-29T10:08:58;19.20;99.90
17918;DHT22;9084;50.956;3.106;2023-07-29T10:11:25;19.40;99.90
17918;DHT22;9084;50.956;3.106;2023-07-29T10:13:51;19.50;99.90
17918;DHT22;9084;50.956;3.106;2023-07-29T10:16:21;19.70;99.90
17918;DHT22;9084;50.956;3.106;2023-07-29T10:18:48;19.90;99.90
17918;DHT22;9084;50.956;3.106;2023-07-29T10:21:19;20.00;99.90
17918;DHT22;9084;50.956;3.106;2023-07-29T10:23:50;20.10;99.90
17918;DHT22;9084;50.956;3.106;2023-07-29T10:26:20;20.10;99.90
17918;DHT22;9084;50.956;3.106;2023-07-29T10:28:51;20.30;99.90
17918;DHT22;9084;50.956;3.106;2023-07-29T10:31:22;20.60;99.90
17918;DHT22;9084;50.956;3.106;2023-07-29T10:33:48;20.70;99.90
17918;DHT22;9084;50.956;3.106;2023-07-29T10:36:17;20.70;99.90
17918;DHT22;9084;50.956;3.106;2023-07-29T10:38:43;20.70;99.90
17918;DHT22;9084;50.956;3.106;2023-07-29T10:41:09;20.80;99.90
17918;DHT22;9084;50.956;3.106;2023-07-29T10:43:36;20.70;99.90
17918;DHT22;9084;50.956;3.106;2023-07-29T10:46:22;20.80;99.90
17918;DHT22;9084;50.956;3.106;2023-07-29T10:53:53;21.10;99.90
17918;DHT22;9084;50.956;3.106;2023-07-29T10:56:35;21.40;99.90
17918;DHT22;9084;50.956;3.106;2023-07-29T11:01:51;21.50;99.90
17918;DHT22;9084;50.956;3.106;2023-07-29T11:15:04;21.40;99.90
17918;DHT22;9084;50.956;3.106;2023-07-29T11:20:17;21.50;99.90
17918;DHT22;9084;50.956;3.106;2023-07-29T11:22:43;21.60;99.90
17918;DHT22;9084;50.956;3.106;2023-07-29T11:25:11;21.70;99.90
17918;DHT22;9084;50.956;3.106;2023-07-29T11:27:40;22.00;99.90
17918;DHT22;9084;50.956;3.106;2023-07-29T11:30:08;22.30;99.90
17918;DHT22;9084;50.956;3.106;2023-07-29T11:32:38;22.50;99.90
17918;DHT22;9084;50.956;3.106;2023-07-29T11:37:38;22.60;99.90
17918;DHT22;9084;50.956;3.106;2023-07-29T11:40:09;22.70;99.90
17918;DHT22;9084;50.956;3.106;2023-07-29T11:42:38;22.90;99.90
17918;DHT22;9084;50.956;3.106;2023-07-29T11:45:04;23.00;99.90
17918;DHT22;9084;50.956;3.106;2023-07-29T11:47:34;23.00;99.90
17918;DHT22;9084;50.956;3.106;2023-07-29T11:50:07;22.90;99.90
17918;DHT22;9084;50.956;3.106;2023-07-29T11:52:38;23.10;99.90
17918;DHT22;9084;50.956;3.106;2023-07-29T11:55:05;23.20;99.90
17918;DHT22;9084;50.956;3.106;2023-07-29T11:57:33;23.40;99.90
17918;DHT22;9084;50.956;3.106;2023-07-29T12:00:05;23.50;99.90
17918;DHT22;9084;50.956;3.106;2023-07-29T12:02:37;23.50;99.90
17918;DHT22;9084;50.956;3.106;2023-07-29T12:05:09;23.60;99.90
17918;DHT22;9084;50.956;3.106;2023-07-29T12:07:35;23.50;99.90
17918;DHT22;9084;50.956;3.106;2023-07-29T12:10:03;23.50;99.90
17918;DHT22;9084;50.956;3.106;2023-07-29T12:12:29;23.40;99.90
17918;DHT22;9084;50.956;3.106;2023-07-29T12:14:56;23.30;99.90
17918;DHT22;9084;50.956;3.106;2023-07-29T12:17:26;23.00;99.90
17918;DHT22;9084;50.956;3.106;2023-07-29T12:19:54;22.70;99.90
17918;DHT22;9084;50.956;3.106;2023-07-29T12:22:20;22.50;99.90
17918;DHT22;9084;50.956;3.106;2023-07-29T12:24:51;22.20;99.90
17918;DHT22;9084;50.956;3.106;2023-07-29T12:27:21;21.90;99.90
17918;DHT22;9084;50.956;3.106;2023-07-29T12:29:47;21.70;99.90
17918;DHT22;9084;50.956;3.106;2023-07-29T12:32:15;21.40;99.90
17918;DHT22;9084;50.956;3.106;2023-07-29T12:34:41;21.30;99.90
17918;DHT22;9084;50.956;3.106;2023-07-29T12:37:09;21.20;99.90
17918;DHT22;9084;50.956;3.106;2023-07-29T12:39:39;21.30;99.90
17918;DHT22;9084;50.956;3.106;2023-07-29T12:42:07;21.60;99.90
17918;DHT22;9084;50.956;3.106;2023-07-29T12:44:35;21.80;99.90
17918;DHT22;9084;50.956;3.106;2023-07-29T12:47:02;21.90;99.90
17918;DHT22;9084;50.956;3.106;2023-07-29T12:49:28;21.70;99.90
17918;DHT22;9084;50.956;3.106;2023-07-29T12:51:58;21.50;99.90
17918;DHT22;9084;50.956;3.106;2023-07-29T12:54:24;21.20;99.90
17918;DHT22;9084;50.956;3.106;2023-07-29T12:56:52;20.90;99.90
17918;DHT22;9084;50.956;3.106;2023-07-29T12:59:18;20.80;99.90
17918;DHT22;9084;50.956;3.106;2023-07-29T13:01:43;20.90;99.90
17918;DHT22;9084;50.956;3.106;2023-07-29T13:04:12;21.00;99.90
17918;DHT22;9084;50.956;3.106;2023-07-29T13:06:38;21.10;99.90
17918;DHT22;9084;50.956;3.106;2023-07-29T13:09:09;21.30;99.90
17918;DHT22;9084;50.956;3.106;2023-07-29T13:11:34;21.50;99.90
17918;DHT22;9084;50.956;3.106;2023-07-29T13:14:00;21.70;99.90
17918;DHT22;9084;50.956;3.106;2023-07-29T13:16:29;21.80;99.90
17918;DHT22;9084;50.956;3.106;2023-07-29T13:18:57;22.00;99.90
17918;DHT22;9084;50.956;3.106;2023-07-29T13:21:23;22.20;99.90
17918;DHT22;9084;50.956;3.106;2023-07-29T13:23:49;22.40;99.90
17918;DHT22;9084;50.956;3.106;2023-07-29T13:26:15;22.70;99.90
17918;DHT22;9084;50.956;3.106;2023-07-29T13:28:40;23.00;99.90
17918;DHT22;9084;50.956;3.106;2023-07-29T13:31:06;22.90;99.90
17918;DHT22;9084;50.956;3.106;2023-07-29T13:33:31;22.70;99.90
17918;DHT22;9084;50.956;3.106;2023-07-29T13:36:00;22.60;99.90
17918;DHT22;9084;50.956;3.106;2023-07-29T13:38:30;22.70;99.90
17918;DHT22;9084;50.956;3.106;2023-07-29T13:40:55;22.70;99.90
17918;DHT22;9084;50.956;3.106;2023-07-29T13:43:26;22.80;99.90
17918;DHT22;9084;50.956;3.106;2023-07-29T13:45:51;22.90;99.90
17918;DHT22;9084;50.956;3.106;2023-07-29T13:48:20;23.00;99.90
17918;DHT22;9084;50.956;3.106;2023-07-29T13:50:48;23.20;99.90
17918;DHT22;9084;50.956;3.106;2023-07-29T13:53:16;23.30;99.90
17918;DHT22;9084;50.956;3.106;2023-07-29T13:55:41;23.30;99.90
17918;DHT22;9084;50.956;3.106;2023-07-29T13:58:07;23.30;99.90
17918;DHT22;9084;50.956;3.106;2023-07-29T14:00:33;23.30;99.90
17918;DHT22;9084;50.956;3.106;2023-07-29T14:03:01;23.20;99.90
17918;DHT22;9084;50.956;3.106;2023-07-29T14:05:26;23.10;99.90
17918;DHT22;9084;50.956;3.106;2023-07-29T14:07:52;22.90;99.90
17918;DHT22;9084;50.956;3.106;2023-07-29T14:10:20;22.70;99.90
17918;DHT22;9084;50.956;3.106;2023-07-29T14:12:46;22.80;99.90
17918;DHT22;9084;50.956;3.106;2023-07-29T14:15:13;23.10;99.90
17918;DHT22;9084;50.956;3.106;2023-07-29T14:17:41;23.40;99.90
17918;DHT22;9084;50.956;3.106;2023-07-29T14:20:10;23.40;99.10
17918;DHT22;9084;50.956;3.106;2023-07-29T14:22:38;23.30;96.80
17918;DHT22;9084;50.956;3.106;2023-07-29T14:25:04;23.40;98.50
17918;DHT22;9084;50.956;3.106;2023-07-29T14:27:30;23.30;96.30
17918;DHT22;9084;50.956;3.106;2023-07-29T14:29:55;23.30;96.40
17918;DHT22;9084;50.956;3.106;2023-07-29T14:32:21;23.20;94.80
17918;DHT22;9084;50.956;3.106;2023-07-29T14:34:49;23.10;95.30
17918;DHT22;9084;50.956;3.106;2023-07-29T14:37:17;23.00;94.70
17918;DHT22;9084;50.956;3.106;2023-07-29T14:39:47;23.00;95.60
17918;DHT22;9084;50.956;3.106;2023-07-29T14:42:15;23.10;95.00
17918;DHT22;9084;50.956;3.106;2023-07-29T14:44:41;23.10;93.20
17918;DHT22;9084;50.956;3.106;2023-07-29T14:47:07;23.10;94.00
17918;DHT22;9084;50.956;3.106;2023-07-29T14:49:33;23.10;92.40
17918;DHT22;9084;50.956;3.106;2023-07-29T14:51:59;23.20;93.60
17918;DHT22;9084;50.956;3.106;2023-07-29T14:54:24;23.30;91.30
17918;DHT22;9084;50.956;3.106;2023-07-29T14:56:50;23.30;90.60
17918;DHT22;9084;50.956;3.106;2023-07-29T14:59:16;23.30;89.40
17918;DHT22;9084;50.956;3.106;2023-07-29T15:01:41;23.40;91.10
17918;DHT22;9084;50.956;3.106;2023-07-29T15:04:07;23.50;87.00
17918;DHT22;9084;50.956;3.106;2023-07-29T15:06:32;23.50;84.30
17918;DHT22;9084;50.956;3.106;2023-07-29T15:09:01;23.50;84.10
17918;DHT22;9084;50.956;3.106;2023-07-29T15:11:26;23.50;83.50
17918;DHT22;9084;50.956;3.106;2023-07-29T15:13:54;23.50;83.30
17918;DHT22;9084;50.956;3.106;2023-07-29T15:16:25;23.50;84.90
17918;DHT22;9084;50.956;3.106;2023-07-29T15:18:53;23.60;85.30
17918;DHT22;9084;50.956;3.106;2023-07-29T15:21:19;23.60;82.90
17918;DHT22;9084;50.956;3.106;2023-07-29T15:23:50;23.70;85.50
17918;DHT22;9084;50.956;3.106;2023-07-29T15:26:18;23.60;83.10
17918;DHT22;9084;50.956;3.106;2023-07-29T15:28:44;23.60;84.10
17918;DHT22;9084;50.956;3.106;2023-07-29T15:31:09;23.60;82.90
17918;DHT22;9084;50.956;3.106;2023-07-29T15:33:36;23.60;83.90
17918;DHT22;9084;50.956;3.106;2023-07-29T15:36:02;23.70;82.90
17918;DHT22;9084;50.956;3.106;2023-07-29T15:38:27;23.70;83.10
17918;DHT22;9084;50.956;3.106;2023-07-29T15:40:53;23.70;82.70
17918;DHT22;9084;50.956;3.106;2023-07-29T15:43:19;23.80;83.40
17918;DHT22;9084;50.956;3.106;2023-07-29T15:45:47;23.80;84.60
17918;DHT22;9084;50.956;3.106;2023-07-29T15:48:13;23.80;83.10
17918;DHT22;9084;50.956;3.106;2023-07-29T15:50:41;23.80;83.20
17918;DHT22;9084;50.956;3.106;2023-07-29T15:53:09;23.80;83.20
17918;DHT22;9084;50.956;3.106;2023-07-29T15:55:35;23.80;81.90
17918;DHT22;9084;50.956;3.106;2023-07-29T15:58:00;23.60;82.20
17918;DHT22;9084;50.956;3.106;2023-07-29T16:00:28;23.70;82.70
17918;DHT22;9084;50.956;3.106;2023-07-29T16:02:54;23.70;83.90
17918;DHT22;9084;50.956;3.106;2023-07-29T16:05:20;23.80;82.90
17918;DHT22;9084;50.956;3.106;2023-07-29T16:07:45;23.70;80.20
17918;DHT22;9084;50.956;3.106;2023-07-29T16:10:11;23.80;82.40
17918;DHT22;9084;50.956;3.106;2023-07-29T16:12:37;23.70;83.30